createdAt,value
2019-03-26T00:02:02.520Z,12.35
2019-03-26T00:04:29.839Z,13.22
2019-03-26T00:06:57.150Z,12.47
2019-03-26T00:09:24.444Z,13.00
2019-03-26T00:11:51.751Z,12.68
2019-03-26T00:14:19.127Z,11.93
2019-03-26T00:16:46.439Z,13.10
2019-03-26T00:19:13.788Z,12.50
2019-03-26T00:21:41.046Z,12.55
2019-03-26T00:24:08.332Z,12.15
2019-03-26T00:26:35.664Z,11.33
2019-03-26T00:29:02.964Z,11.25
2019-03-26T00:31:30.274Z,11.03
2019-03-26T00:33:57.569Z,11.50
2019-03-26T00:36:24.869Z,11.08
2019-03-26T00:38:52.196Z,12.10
2019-03-26T00:41:19.497Z,11.85
2019-03-26T00:43:46.810Z,12.70
2019-03-26T00:46:14.093Z,12.10
2019-03-26T00:48:41.417Z,13.03
2019-03-26T00:51:08.697Z,11.53
2019-03-26T00:53:35.989Z,12.33
2019-03-26T00:56:03.382Z,11.78
2019-03-26T00:58:30.766Z,12.30
2019-03-26T01:00:58.089Z,11.53
2019-03-26T01:03:25.386Z,12.47
2019-03-26T01:05:52.673Z,11.25
2019-03-26T01:08:19.986Z,12.10
2019-03-26T01:10:47.290Z,12.03
2019-03-26T01:13:14.614Z,11.05
2019-03-26T01:15:41.918Z,12.33
2019-03-26T01:18:09.226Z,14.58
2019-03-26T01:20:36.527Z,13.98
2019-03-26T01:23:03.838Z,13.72
2019-03-26T01:25:31.149Z,13.10
2019-03-26T01:27:58.455Z,12.75
2019-03-26T01:30:25.776Z,12.70
2019-03-26T01:32:53.080Z,11.50
2019-03-26T01:35:20.360Z,12.53
2019-03-26T01:37:47.690Z,10.70
2019-03-26T01:40:14.983Z,11.22
2019-03-26T01:42:42.283Z,11.30
2019-03-26T01:45:09.603Z,11.38
2019-03-26T01:47:36.902Z,11.93
2019-03-26T01:50:05.004Z,11.33
2019-03-26T01:52:32.293Z,11.45
2019-03-26T01:54:59.586Z,11.45
2019-03-26T01:57:26.917Z,11.18
2019-03-26T01:59:54.218Z,10.55
2019-03-26T02:02:21.515Z,9.90
2019-03-26T02:04:59.329Z,11.45
2019-03-26T02:07:17.768Z,11.05
2019-03-26T02:09:45.069Z,12.20
2019-03-26T02:12:12.400Z,12.00
2019-03-26T02:14:39.763Z,11.50
2019-03-26T02:17:07.069Z,11.80
2019-03-26T02:19:34.363Z,10.95
2019-03-26T02:22:01.673Z,12.58
2019-03-26T02:24:28.962Z,11.53
2019-03-26T02:26:56.259Z,10.78
2019-03-26T02:29:23.594Z,10.60
2019-03-26T02:31:50.888Z,11.83
2019-03-26T02:34:18.192Z,10.80
2019-03-26T02:36:45.507Z,11.20
2019-03-26T02:39:12.830Z,11.53
2019-03-26T02:41:40.120Z,10.90
2019-03-26T02:44:07.457Z,11.00
2019-03-26T02:46:34.742Z,11.25
2019-03-26T02:49:02.038Z,10.00
2019-03-26T02:51:29.360Z,10.48
2019-03-26T02:53:56.655Z,9.78
2019-03-26T02:56:23.966Z,10.60
2019-03-26T02:58:51.265Z,11.00
2019-03-26T03:01:18.563Z,10.30
2019-03-26T03:03:45.877Z,11.10
2019-03-26T03:06:13.182Z,10.75
2019-03-26T03:08:40.759Z,11.63
2019-03-26T03:11:08.069Z,12.88
2019-03-26T03:13:35.358Z,12.07
2019-03-26T03:16:02.660Z,11.95
2019-03-26T03:18:30.014Z,12.03
2019-03-26T03:20:57.572Z,11.70
2019-03-26T03:23:24.821Z,11.80
2019-03-26T03:25:52.148Z,12.10
2019-03-26T03:28:19.448Z,12.13
2019-03-26T03:30:46.765Z,16.23
2019-03-26T03:33:14.067Z,12.93
2019-03-26T03:35:52.130Z,12.13
2019-03-26T03:38:10.298Z,18.20
2019-03-26T03:40:37.622Z,14.50
2019-03-26T03:43:04.929Z,14.87
2019-03-26T03:45:32.240Z,17.85
2019-03-26T03:47:59.600Z,13.62
2019-03-26T03:50:26.889Z,12.30
2019-03-26T03:52:54.157Z,11.85
2019-03-26T03:55:21.478Z,12.05
2019-03-26T03:57:52.536Z,11.83
2019-03-26T04:00:22.009Z,12.50
2019-03-26T04:02:49.332Z,11.78
2019-03-26T04:05:16.645Z,12.28
2019-03-26T04:07:44.018Z,12.20
2019-03-26T04:10:11.313Z,13.83
2019-03-26T04:12:38.636Z,13.10
2019-03-26T04:15:06.202Z,12.25
2019-03-26T04:17:33.528Z,12.45
2019-03-26T04:20:00.851Z,12.13
2019-03-26T04:22:28.147Z,12.40
2019-03-26T04:24:55.446Z,13.58
2019-03-26T04:27:22.765Z,11.35
2019-03-26T04:29:50.074Z,12.68
2019-03-26T04:32:17.394Z,12.93
2019-03-26T04:34:44.683Z,12.50
2019-03-26T04:37:12.001Z,11.85
2019-03-26T04:39:39.291Z,12.40
2019-03-26T04:42:06.626Z,12.23
2019-03-26T04:44:33.924Z,12.45
2019-03-26T04:47:01.226Z,13.05
2019-03-26T04:49:28.542Z,14.13
2019-03-26T04:51:55.847Z,12.40
2019-03-26T04:54:23.148Z,14.05
2019-03-26T04:56:50.472Z,14.05
2019-03-26T04:59:17.790Z,13.68
2019-03-26T05:01:45.079Z,13.78
2019-03-26T05:04:12.403Z,15.13
2019-03-26T05:06:39.704Z,14.90
2019-03-26T05:09:07.034Z,16.48
2019-03-26T05:11:34.330Z,15.53
2019-03-26T05:14:01.626Z,14.47
2019-03-26T05:16:28.971Z,14.85
2019-03-26T05:18:56.318Z,14.60
2019-03-26T05:21:23.569Z,15.93
2019-03-26T05:23:52.031Z,15.13
2019-03-26T05:26:19.369Z,13.45
2019-03-26T05:28:46.695Z,14.63
2019-03-26T05:31:14.030Z,14.05
2019-03-26T05:33:41.327Z,13.28
2019-03-26T05:36:08.719Z,14.28
2019-03-26T05:38:36.023Z,14.75
2019-03-26T05:41:03.405Z,15.55
2019-03-26T05:43:30.713Z,14.90
2019-03-26T05:45:58.041Z,15.30
2019-03-26T05:48:25.325Z,15.25
2019-03-26T05:50:52.653Z,15.83
2019-03-26T05:53:19.937Z,17.57
2019-03-26T05:55:47.243Z,25.52
2019-03-26T05:58:14.545Z,17.60
2019-03-26T06:00:41.851Z,18.23
2019-03-26T06:03:09.142Z,17.73
2019-03-26T06:05:36.470Z,18.32
2019-03-26T06:08:03.761Z,18.25
2019-03-26T06:10:31.051Z,17.37
2019-03-26T06:12:58.381Z,15.53
2019-03-26T06:15:25.693Z,15.18
2019-03-26T06:17:52.998Z,15.70
2019-03-26T06:20:20.285Z,14.80
2019-03-26T06:22:47.610Z,15.28
2019-03-26T06:25:14.923Z,15.58
2019-03-26T06:27:42.219Z,17.02
2019-03-26T06:30:09.515Z,13.65
2019-03-26T06:32:36.905Z,13.22
2019-03-26T06:35:05.839Z,12.45
2019-03-26T06:37:33.128Z,14.43
2019-03-26T06:40:00.442Z,16.48
2019-03-26T06:42:27.738Z,14.63
2019-03-26T06:44:55.057Z,14.80
2019-03-26T06:47:22.368Z,14.60
2019-03-26T06:49:49.656Z,15.78
2019-03-26T06:52:16.971Z,17.10
2019-03-26T06:54:44.273Z,15.10
2019-03-26T06:57:11.620Z,15.00
2019-03-26T06:59:38.915Z,13.70
2019-03-26T07:02:06.225Z,14.20
2019-03-26T07:04:33.540Z,12.47
2019-03-26T07:07:00.836Z,13.30
2019-03-26T07:09:28.153Z,15.08
2019-03-26T07:11:55.459Z,16.15
2019-03-26T07:14:22.753Z,14.73
2019-03-26T07:16:50.077Z,13.25
2019-03-26T07:19:17.394Z,12.25
2019-03-26T07:21:49.777Z,14.85
2019-03-26T07:24:13.649Z,14.07
2019-03-26T07:26:41.028Z,15.10
2019-03-26T07:29:08.320Z,14.05
2019-03-26T07:31:35.668Z,13.30
2019-03-26T07:34:02.965Z,12.73
2019-03-26T07:36:30.267Z,12.68
2019-03-26T07:38:57.585Z,12.33
2019-03-26T07:41:24.889Z,13.10
2019-03-26T07:43:52.206Z,12.28
2019-03-26T07:46:19.499Z,11.78
2019-03-26T07:48:46.827Z,10.60
2019-03-26T07:51:14.121Z,12.10
2019-03-26T07:53:41.448Z,12.10
2019-03-26T07:56:08.768Z,10.30
2019-03-26T07:58:36.069Z,13.38
2019-03-26T08:01:03.382Z,10.25
2019-03-26T08:03:30.684Z,12.00
2019-03-26T08:05:57.987Z,13.35
2019-03-26T08:08:25.306Z,12.68
2019-03-26T08:10:52.607Z,12.78
2019-03-26T08:13:19.937Z,10.30
2019-03-26T08:15:47.231Z,11.20
2019-03-26T08:18:14.551Z,10.95
2019-03-26T08:20:41.855Z,10.82
2019-03-26T08:23:09.146Z,11.63
2019-03-26T08:25:36.482Z,10.80
2019-03-26T08:28:05.253Z,10.43
2019-03-26T08:30:32.787Z,11.28
2019-03-26T08:33:00.125Z,10.60
2019-03-26T08:35:27.434Z,10.75
2019-03-26T08:37:54.754Z,11.18
2019-03-26T08:40:23.490Z,11.25
2019-03-26T08:42:50.868Z,7.58
2019-03-26T08:45:18.190Z,7.05
2019-03-26T08:47:45.474Z,6.33
2019-03-26T08:50:12.773Z,6.40
2019-03-26T08:52:40.081Z,7.45
2019-03-26T08:55:10.065Z,7.75
2019-03-26T08:57:37.350Z,6.25
2019-03-26T09:00:05.125Z,7.15
2019-03-26T09:02:32.404Z,6.35
2019-03-26T09:04:59.711Z,6.40
2019-03-26T09:07:26.992Z,6.12
2019-03-26T09:09:54.301Z,6.90
2019-03-26T09:12:21.580Z,7.08
2019-03-26T09:14:48.860Z,5.95
2019-03-26T09:17:16.193Z,6.78
2019-03-26T09:19:43.486Z,6.92
2019-03-26T09:22:10.770Z,7.25
2019-03-26T09:24:38.069Z,6.97
2019-03-26T09:27:05.389Z,7.22
2019-03-26T09:29:32.692Z,7.40
2019-03-26T09:32:00.010Z,6.58
2019-03-26T09:34:27.303Z,6.37
2019-03-26T09:36:54.581Z,6.10
2019-03-26T09:39:21.901Z,5.42
2019-03-26T09:41:49.194Z,5.78
2019-03-26T09:44:16.532Z,5.55
2019-03-26T09:46:43.815Z,5.00
2019-03-26T09:49:11.138Z,4.65
2019-03-26T09:51:38.426Z,6.72
2019-03-26T09:54:05.731Z,6.72
2019-03-26T09:56:33.042Z,5.58
2019-03-26T09:59:00.336Z,5.37
2019-03-26T10:01:27.619Z,5.37
2019-03-26T10:03:54.929Z,5.90
2019-03-26T10:06:23.637Z,5.87
2019-03-26T10:08:52.785Z,5.72
2019-03-26T10:11:20.339Z,6.70
2019-03-26T10:13:47.612Z,5.97
2019-03-26T10:16:14.911Z,5.58
2019-03-26T10:18:42.231Z,5.60
2019-03-26T10:21:09.559Z,6.00
2019-03-26T10:23:36.838Z,5.47
2019-03-26T10:26:04.157Z,6.67
2019-03-26T10:28:31.445Z,4.92
2019-03-26T10:30:58.734Z,6.03
2019-03-26T10:33:26.062Z,6.00
2019-03-26T10:35:53.361Z,5.70
2019-03-26T10:38:20.661Z,5.80
2019-03-26T10:40:47.963Z,4.92
2019-03-26T10:43:15.271Z,5.58
2019-03-26T10:45:42.583Z,4.87
2019-03-26T10:48:09.882Z,5.47
2019-03-26T10:50:37.161Z,6.62
2019-03-26T10:53:04.476Z,6.55
2019-03-26T10:55:31.763Z,5.83
2019-03-26T10:57:59.073Z,5.90
2019-03-26T11:00:26.624Z,6.17
2019-03-26T11:02:54.218Z,5.50
2019-03-26T11:05:21.502Z,4.75
2019-03-26T11:07:48.785Z,5.80
2019-03-26T11:10:16.099Z,4.58
2019-03-26T11:12:43.385Z,5.05
2019-03-26T11:15:10.703Z,5.62
2019-03-26T11:17:38.017Z,6.97
2019-03-26T11:20:05.506Z,4.97
2019-03-26T11:22:32.829Z,6.10
2019-03-26T11:25:00.164Z,5.83
2019-03-26T11:27:27.607Z,5.20
2019-03-26T11:29:54.884Z,4.85
2019-03-26T11:32:22.198Z,5.42
2019-03-26T11:34:49.531Z,5.95
2019-03-26T11:37:16.827Z,5.87
2019-03-26T11:39:44.131Z,5.47
2019-03-26T11:42:11.418Z,5.28
2019-03-26T11:44:38.787Z,5.83
2019-03-26T11:47:06.095Z,4.75
2019-03-26T11:49:33.389Z,5.20
2019-03-26T11:52:00.693Z,5.60
2019-03-26T11:54:28.065Z,5.90
2019-03-26T11:56:55.421Z,4.90
2019-03-26T11:59:22.741Z,5.70
2019-03-26T12:01:52.440Z,5.67
2019-03-26T12:04:18.988Z,4.87
2019-03-26T12:06:46.276Z,6.00
2019-03-26T12:09:13.581Z,5.30
2019-03-26T12:11:40.857Z,5.00
2019-03-26T12:14:08.247Z,5.12
2019-03-26T12:16:35.537Z,4.40
2019-03-26T12:19:02.852Z,3.45
2019-03-26T12:21:30.145Z,5.22
2019-03-26T12:23:57.444Z,4.15
2019-03-26T12:26:24.762Z,3.92
2019-03-26T12:28:52.058Z,4.45
2019-03-26T12:31:19.381Z,4.28
2019-03-26T12:33:46.670Z,4.12
2019-03-26T12:36:13.961Z,3.95
2019-03-26T12:38:41.278Z,4.20
2019-03-26T12:41:08.638Z,4.60
2019-03-26T12:43:35.850Z,3.80
2019-03-26T12:46:03.168Z,4.62
2019-03-26T12:48:30.454Z,3.42
2019-03-26T12:50:57.781Z,4.08
2019-03-26T12:53:25.100Z,4.30
2019-03-26T12:55:52.382Z,3.60
2019-03-26T12:58:30.991Z,3.22
2019-03-26T13:00:48.637Z,3.30
2019-03-26T13:03:15.914Z,3.65
2019-03-26T13:05:43.251Z,4.05
2019-03-26T13:08:10.518Z,3.22
2019-03-26T13:10:37.853Z,3.90
2019-03-26T13:13:05.124Z,3.25
2019-03-26T13:15:32.438Z,3.37
2019-03-26T13:17:59.789Z,3.20
2019-03-26T13:20:27.076Z,3.33
2019-03-26T13:22:54.386Z,3.45
2019-03-26T13:25:21.672Z,3.25
2019-03-26T13:27:48.956Z,3.42
2019-03-26T13:30:16.293Z,4.15
2019-03-26T13:32:43.597Z,3.35
2019-03-26T13:35:10.889Z,3.33
2019-03-26T13:37:38.174Z,3.30
2019-03-26T13:40:05.565Z,3.02
2019-03-26T13:42:32.853Z,2.70
2019-03-26T13:45:00.349Z,3.30
2019-03-26T13:47:27.754Z,3.80
2019-03-26T13:49:55.042Z,2.98
2019-03-26T13:52:22.349Z,3.90
2019-03-26T13:54:49.651Z,14.38
2019-03-26T13:57:16.975Z,3.92
2019-03-26T13:59:44.327Z,3.52
2019-03-26T14:02:11.630Z,3.60
2019-03-26T14:04:38.937Z,6.05
2019-03-26T14:07:06.235Z,4.87
2019-03-26T14:09:33.550Z,3.70
2019-03-26T14:12:00.877Z,4.10
2019-03-26T14:14:28.174Z,4.92
2019-03-26T14:16:55.460Z,3.72
2019-03-26T14:19:22.769Z,4.17
2019-03-26T14:21:50.099Z,3.55
2019-03-26T14:24:17.391Z,6.50
2019-03-26T14:26:44.691Z,4.80
2019-03-26T14:29:12.007Z,3.77
2019-03-26T14:31:39.324Z,3.17
2019-03-26T14:34:06.616Z,4.90
2019-03-26T14:36:33.909Z,4.70
2019-03-26T14:39:01.222Z,3.30
2019-03-26T14:41:28.516Z,2.87
2019-03-26T14:43:55.828Z,3.02
2019-03-26T14:46:23.108Z,3.25
2019-03-26T14:48:50.412Z,4.40
2019-03-26T14:51:17.749Z,3.75
2019-03-26T14:53:45.029Z,5.95
2019-03-26T14:56:12.336Z,4.45
2019-03-26T14:58:39.633Z,3.65
2019-03-26T15:01:06.935Z,3.15
2019-03-26T15:03:34.237Z,5.60
2019-03-26T15:06:04.448Z,5.62
2019-03-26T15:08:30.466Z,4.45
2019-03-26T15:11:07.465Z,4.50
2019-03-26T15:13:26.729Z,4.12
2019-03-26T15:15:54.062Z,4.95
2019-03-26T15:18:21.343Z,5.55
2019-03-26T15:20:48.621Z,6.15
2019-03-26T15:23:15.941Z,4.30
2019-03-26T15:25:43.259Z,5.30
2019-03-26T15:28:11.937Z,7.37
2019-03-26T15:30:39.454Z,5.53
2019-03-26T15:33:06.736Z,6.25
2019-03-26T15:35:34.051Z,5.83
2019-03-26T15:38:01.353Z,6.60
2019-03-26T15:40:28.657Z,6.35
2019-03-26T15:42:55.975Z,6.12
2019-03-26T15:45:23.252Z,5.58
2019-03-26T15:47:50.545Z,7.10
2019-03-26T15:50:19.486Z,6.85
2019-03-26T15:52:46.774Z,6.72
2019-03-26T15:55:14.054Z,5.83
2019-03-26T15:57:41.385Z,6.37
2019-03-26T16:00:08.662Z,5.90
2019-03-26T16:02:35.953Z,6.30
2019-03-26T16:05:03.839Z,5.90
2019-03-26T16:07:33.168Z,6.22
2019-03-26T16:10:00.102Z,5.45
2019-03-26T16:12:40.272Z,5.92
2019-03-26T16:14:56.310Z,6.03
2019-03-26T16:17:23.627Z,5.42
2019-03-26T16:19:50.938Z,5.80
2019-03-26T16:22:18.227Z,6.42
2019-03-26T16:24:45.514Z,6.62
2019-03-26T16:27:12.830Z,6.87
2019-03-26T16:29:40.125Z,4.80
2019-03-26T16:32:07.434Z,4.90
2019-03-26T16:34:34.748Z,6.00
2019-03-26T16:37:02.055Z,6.55
2019-03-26T16:39:29.347Z,5.37
2019-03-26T16:41:56.654Z,6.40
2019-03-26T16:44:23.942Z,5.85
2019-03-26T16:46:51.221Z,6.20
2019-03-26T16:49:18.538Z,6.00
2019-03-26T16:51:45.838Z,6.50
2019-03-26T16:54:13.129Z,6.30
2019-03-26T16:56:40.428Z,5.67
2019-03-26T16:59:07.723Z,6.05
2019-03-26T17:01:34.996Z,5.20
2019-03-26T17:04:02.315Z,6.42
2019-03-26T17:06:29.621Z,6.70
2019-03-26T17:08:56.909Z,5.60
2019-03-26T17:11:24.194Z,6.28
2019-03-26T17:13:51.510Z,6.65
2019-03-26T17:16:18.791Z,6.47
2019-03-26T17:18:46.070Z,6.65
2019-03-26T17:21:13.400Z,7.65
2019-03-26T17:23:40.687Z,7.08
2019-03-26T17:26:08.008Z,7.08
2019-03-26T17:28:35.309Z,6.35
2019-03-26T17:31:02.607Z,6.15
2019-03-26T17:33:29.939Z,6.70
2019-03-26T17:35:57.243Z,7.28
2019-03-26T17:38:24.530Z,7.00
2019-03-26T17:40:51.837Z,6.45
2019-03-26T17:43:19.130Z,7.45
2019-03-26T17:45:46.446Z,7.72
2019-03-26T17:48:13.734Z,8.55
2019-03-26T17:50:41.051Z,9.50
2019-03-26T17:53:08.351Z,9.60
2019-03-26T17:55:35.638Z,9.28
2019-03-26T17:58:02.984Z,10.38
2019-03-26T18:00:37.831Z,10.75
2019-03-26T18:03:05.150Z,10.70
2019-03-26T18:05:32.458Z,11.55
2019-03-26T18:07:59.786Z,11.83
2019-03-26T18:10:27.072Z,11.40
2019-03-26T18:12:54.371Z,12.47
2019-03-26T18:15:21.706Z,11.18
2019-03-26T18:17:48.985Z,11.00
2019-03-26T18:20:16.281Z,10.28
2019-03-26T18:22:50.433Z,11.53
2019-03-26T18:25:17.713Z,10.70
2019-03-26T18:27:45.083Z,9.93
2019-03-26T18:30:12.405Z,10.25
2019-03-26T18:32:39.715Z,10.10
2019-03-26T18:35:07.006Z,9.95
2019-03-26T18:37:34.325Z,11.70
2019-03-26T18:40:01.626Z,10.08
2019-03-26T18:42:28.942Z,10.50
2019-03-26T18:44:56.240Z,9.73
2019-03-26T18:47:23.571Z,11.55
2019-03-26T18:49:50.864Z,10.88
2019-03-26T18:52:18.148Z,9.35
2019-03-26T18:54:45.478Z,10.00
2019-03-26T18:57:12.786Z,10.13
2019-03-26T18:59:40.073Z,8.48
2019-03-26T19:02:07.399Z,7.40
2019-03-26T19:04:34.689Z,7.92
2019-03-26T19:07:02.007Z,7.37
2019-03-26T19:09:29.287Z,7.25
2019-03-26T19:11:56.614Z,9.08
2019-03-26T19:14:23.897Z,8.63
2019-03-26T19:16:51.222Z,8.70
2019-03-26T19:19:18.500Z,9.70
2019-03-26T19:21:45.806Z,10.65
2019-03-26T19:24:13.118Z,9.50
2019-03-26T19:26:40.410Z,10.72
2019-03-26T19:29:07.739Z,9.25
2019-03-26T19:31:35.027Z,8.98
2019-03-26T19:34:02.355Z,9.78
2019-03-26T19:36:29.645Z,9.08
2019-03-26T19:38:56.939Z,9.33
2019-03-26T19:41:24.266Z,9.25
2019-03-26T19:43:51.563Z,9.10
2019-03-26T19:46:18.893Z,7.97
2019-03-26T19:48:46.174Z,9.58
2019-03-26T19:51:13.490Z,9.05
2019-03-26T19:53:40.765Z,7.97
2019-03-26T19:56:08.078Z,8.83
2019-03-26T19:58:35.376Z,9.65
2019-03-26T20:01:02.669Z,9.28
2019-03-26T20:03:30.004Z,10.38
2019-03-26T20:05:57.309Z,9.40
2019-03-26T20:08:24.601Z,9.33
2019-03-26T20:10:51.926Z,9.63
2019-03-26T20:13:24.774Z,8.45
2019-03-26T20:15:48.165Z,8.08
2019-03-26T20:18:15.504Z,10.20
2019-03-26T20:20:42.815Z,7.17
2019-03-26T20:23:10.155Z,7.90
2019-03-26T20:25:37.444Z,8.40
2019-03-26T20:28:04.731Z,8.10
2019-03-26T20:30:32.047Z,7.65
2019-03-26T20:32:59.374Z,8.05
2019-03-26T20:35:26.958Z,8.25
2019-03-26T20:37:54.273Z,7.80
2019-03-26T20:40:21.572Z,8.28
2019-03-26T20:42:48.869Z,7.47
2019-03-26T20:45:16.174Z,7.92
2019-03-26T20:47:43.475Z,8.93
2019-03-26T20:50:10.780Z,6.25
2019-03-26T20:52:38.157Z,6.70
2019-03-26T20:55:06.077Z,6.35
2019-03-26T20:57:33.394Z,6.97
2019-03-26T21:00:00.685Z,7.47
2019-03-26T21:02:28.011Z,6.95
2019-03-26T21:04:55.294Z,6.60
2019-03-26T21:07:22.582Z,7.30
2019-03-26T21:09:49.897Z,7.20
2019-03-26T21:12:17.209Z,7.05
2019-03-26T21:14:44.497Z,7.33
2019-03-26T21:17:11.796Z,6.58
2019-03-26T21:19:39.103Z,6.83
2019-03-26T21:22:06.388Z,7.67
2019-03-26T21:24:33.711Z,7.25
2019-03-26T21:27:00.988Z,7.25
2019-03-26T21:29:28.286Z,7.40
2019-03-26T21:31:55.607Z,7.40
2019-03-26T21:34:30.290Z,6.70
2019-03-26T21:36:51.838Z,7.53
2019-03-26T21:39:19.229Z,8.20
2019-03-26T21:41:46.548Z,7.40
2019-03-26T21:44:13.856Z,7.42
2019-03-26T21:46:41.152Z,8.90
2019-03-26T21:49:08.455Z,7.60
2019-03-26T21:51:35.809Z,7.60
2019-03-26T21:54:03.121Z,7.35
2019-03-26T21:56:30.413Z,7.00
2019-03-26T21:58:57.702Z,7.33
2019-03-26T22:01:25.046Z,6.95
2019-03-26T22:03:52.344Z,7.58
2019-03-26T22:06:19.658Z,7.60
2019-03-26T22:08:46.951Z,7.75
2019-03-26T22:11:14.228Z,7.28
2019-03-26T22:13:41.554Z,8.60
2019-03-26T22:16:08.847Z,8.30
2019-03-26T22:18:36.130Z,7.47
2019-03-26T22:21:03.518Z,7.20
2019-03-26T22:23:30.798Z,8.10
2019-03-26T22:25:58.119Z,8.25
2019-03-26T22:28:25.415Z,8.13
2019-03-26T22:30:52.736Z,8.10
2019-03-26T22:33:20.029Z,8.88
2019-03-26T22:35:47.337Z,8.25
2019-03-26T22:38:14.633Z,9.35
2019-03-26T22:40:41.923Z,8.50
2019-03-26T22:43:09.240Z,8.70
2019-03-26T22:45:36.551Z,8.65
2019-03-26T22:48:03.875Z,9.45
2019-03-26T22:50:31.175Z,8.68
2019-03-26T22:52:58.474Z,9.95
2019-03-26T22:55:25.783Z,8.70
2019-03-26T22:57:53.077Z,8.93
2019-03-26T23:00:20.454Z,9.53
2019-03-26T23:02:47.754Z,9.35
2019-03-26T23:05:15.111Z,8.10
2019-03-26T23:07:42.424Z,9.65
2019-03-26T23:10:09.737Z,10.13
2019-03-26T23:12:37.052Z,11.03
2019-03-26T23:15:05.967Z,9.75
2019-03-26T23:17:33.301Z,9.90
2019-03-26T23:20:00.576Z,12.23
2019-03-26T23:22:27.889Z,13.90
2019-03-26T23:24:55.191Z,13.95
2019-03-26T23:27:22.510Z,14.07
2019-03-26T23:29:49.866Z,14.75
2019-03-26T23:32:17.179Z,14.23
2019-03-26T23:34:44.473Z,15.78
2019-03-26T23:37:11.791Z,14.50
2019-03-26T23:39:39.085Z,14.45
2019-03-26T23:42:06.407Z,16.00
2019-03-26T23:44:33.702Z,12.68
2019-03-26T23:47:01.015Z,14.63
2019-03-26T23:49:28.322Z,13.00
2019-03-26T23:51:55.641Z,14.05
2019-03-26T23:54:22.937Z,10.95
2019-03-26T23:56:50.237Z,10.63
2019-03-26T23:59:17.550Z,10.03
